sensor_id;sensor_type;location;lat;lon;timestamp;temperature;humidity
32293;DHT22;43233;48.608;8.838;2024-03-02T00:01:04;6.60;66.40
32293;DHT22;43233;48.608;8.838;2024-03-02T00:03:30;6.60;66.40
32293;DHT22;43233;48.608;8.838;2024-03-02T00:05:55;6.60;66.50
32293;DHT22;43233;48.608;8.838;2024-03-02T00:08:24;6.50;66.70
32293;DHT22;43233;48.608;8.838;2024-03-02T00:10:57;6.50;66.90
32293;DHT22;43233;48.608;8.838;2024-03-02T00:13:24;6.50;67.10
32293;DHT22;43233;48.608;8.838;2024-03-02T00:15:54;6.50;67.10
32293;DHT22;43233;48.608;8.838;2024-03-02T00:18:30;6.50;67.50
32293;DHT22;43233;48.608;8.838;2024-03-02T00:20:57;6.40;67.20
32293;DHT22;43233;48.608;8.838;2024-03-02T00:23:24;6.40;67.30
32293;DHT22;43233;48.608;8.838;2024-03-02T00:25:54;6.40;67.50
32293;DHT22;43233;48.608;8.838;2024-03-02T00:28:34;6.40;67.60
32293;DHT22;43233;48.608;8.838;2024-03-02T00:31:07;6.40;67.80
32293;DHT22;43233;48.608;8.838;2024-03-02T00:33:38;6.40;68.00
32293;DHT22;43233;48.608;8.838;2024-03-02T00:36:06;6.30;68.20
32293;DHT22;43233;48.608;8.838;2024-03-02T00:38:33;6.30;68.40
32293;DHT22;43233;48.608;8.838;2024-03-02T00:41:03;6.30;68.50
32293;DHT22;43233;48.608;8.838;2024-03-02T00:43:42;6.30;68.60
32293;DHT22;43233;48.608;8.838;2024-03-02T00:46:17;6.30;68.60
32293;DHT22;43233;48.608;8.838;2024-03-02T00:49:05;6.30;68.70
32293;DHT22;43233;48.608;8.838;2024-03-02T00:51:32;6.30;68.70
32293;DHT22;43233;48.608;8.838;2024-03-02T00:54:03;6.30;68.90
32293;DHT22;43233;48.608;8.838;2024-03-02T00:56:30;6.30;68.80
32293;DHT22;43233;48.608;8.838;2024-03-02T00:58:56;6.30;68.70
32293;DHT22;43233;48.608;8.838;2024-03-02T01:01:22;6.20;68.80
32293;DHT22;43233;48.608;8.838;2024-03-02T01:03:48;6.20;68.90
32293;DHT22;43233;48.608;8.838;2024-03-02T01:06:15;6.20;68.90
32293;DHT22;43233;48.608;8.838;2024-03-02T01:08:41;6.20;68.90
32293;DHT22;43233;48.608;8.838;2024-03-02T01:11:07;6.20;69.00
32293;DHT22;43233;48.608;8.838;2024-03-02T01:13:32;6.20;69.00
32293;DHT22;43233;48.608;8.838;2024-03-02T01:15:58;6.20;69.20
32293;DHT22;43233;48.608;8.838;2024-03-02T01:18:24;6.10;69.20
32293;DHT22;43233;48.608;8.838;2024-03-02T01:20:50;6.10;69.20
32293;DHT22;43233;48.608;8.838;2024-03-02T01:23:22;6.10;69.30
32293;DHT22;43233;48.608;8.838;2024-03-02T01:25:47;6.00;69.50
32293;DHT22;43233;48.608;8.838;2024-03-02T01:28:14;6.00;70.40
32293;DHT22;43233;48.608;8.838;2024-03-02T01:30:39;5.90;69.70
32293;DHT22;43233;48.608;8.838;2024-03-02T01:33:05;5.90;69.80
32293;DHT22;43233;48.608;8.838;2024-03-02T01:35:34;5.80;69.90
32293;DHT22;43233;48.608;8.838;2024-03-02T01:38:00;5.80;69.90
32293;DHT22;43233;48.608;8.838;2024-03-02T01:40:26;5.80;70.00
32293;DHT22;43233;48.608;8.838;2024-03-02T01:42:52;5.70;69.90
32293;DHT22;43233;48.608;8.838;2024-03-02T01:45:23;5.70;70.10
32293;DHT22;43233;48.608;8.838;2024-03-02T01:47:49;5.70;70.10
32293;DHT22;43233;48.608;8.838;2024-03-02T01:50:15;5.60;70.00
32293;DHT22;43233;48.608;8.838;2024-03-02T01:52:41;5.60;70.30
32293;DHT22;43233;48.608;8.838;2024-03-02T01:55:07;5.50;70.40
32293;DHT22;43233;48.608;8.838;2024-03-02T01:57:33;5.50;70.70
32293;DHT22;43233;48.608;8.838;2024-03-02T02:00:00;5.50;70.90
32293;DHT22;43233;48.608;8.838;2024-03-02T02:02:26;5.50;71.10
32293;DHT22;43233;48.608;8.838;2024-03-02T02:04:51;5.50;71.00
32293;DHT22;43233;48.608;8.838;2024-03-02T02:07:17;5.50;71.30
32293;DHT22;43233;48.608;8.838;2024-03-02T02:09:43;5.50;71.30
32293;DHT22;43233;48.608;8.838;2024-03-02T02:12:12;5.40;71.60
32293;DHT22;43233;48.608;8.838;2024-03-02T02:14:38;5.40;71.80
32293;DHT22;43233;48.608;8.838;2024-03-02T02:17:05;5.40;72.20
32293;DHT22;43233;48.608;8.838;2024-03-02T02:19:31;5.40;72.30
32293;DHT22;43233;48.608;8.838;2024-03-02T02:21:56;5.30;72.60
32293;DHT22;43233;48.608;8.838;2024-03-02T02:24:22;5.30;72.70
32293;DHT22;43233;48.608;8.838;2024-03-02T02:26:47;5.30;73.40
32293;DHT22;43233;48.608;8.838;2024-03-02T02:29:13;5.30;72.40
32293;DHT22;43233;48.608;8.838;2024-03-02T02:31:40;5.20;72.00
32293;DHT22;43233;48.608;8.838;2024-03-02T02:34:06;5.20;72.40
32293;DHT22;43233;48.608;8.838;2024-03-02T02:36:37;5.20;72.30
32293;DHT22;43233;48.608;8.838;2024-03-02T02:39:04;5.20;72.20
32293;DHT22;43233;48.608;8.838;2024-03-02T02:41:30;5.20;72.20
32293;DHT22;43233;48.608;8.838;2024-03-02T02:43:56;5.20;71.90
32293;DHT22;43233;48.608;8.838;2024-03-02T02:46:22;5.20;71.40
32293;DHT22;43233;48.608;8.838;2024-03-02T02:48:47;5.10;71.30
32293;DHT22;43233;48.608;8.838;2024-03-02T02:51:13;5.10;71.40
32293;DHT22;43233;48.608;8.838;2024-03-02T02:53:39;5.10;71.60
32293;DHT22;43233;48.608;8.838;2024-03-02T02:56:07;5.10;71.40
32293;DHT22;43233;48.608;8.838;2024-03-02T02:58:33;5.10;71.60
32293;DHT22;43233;48.608;8.838;2024-03-02T03:00:58;5.00;71.20
32293;DHT22;43233;48.608;8.838;2024-03-02T03:03:24;5.00;71.40
32293;DHT22;43233;48.608;8.838;2024-03-02T03:05:50;5.00;71.20
32293;DHT22;43233;48.608;8.838;2024-03-02T03:08:15;5.00;71.00
32293;DHT22;43233;48.608;8.838;2024-03-02T03:10:44;5.00;71.00
32293;DHT22;43233;48.608;8.838;2024-03-02T03:13:10;4.90;71.60
32293;DHT22;43233;48.608;8.838;2024-03-02T03:15:36;4.90;72.90
32293;DHT22;43233;48.608;8.838;2024-03-02T03:18:04;4.90;73.30
32293;DHT22;43233;48.608;8.838;2024-03-02T03:20:31;4.90;73.30
32293;DHT22;43233;48.608;8.838;2024-03-02T03:22:57;4.90;73.50
32293;DHT22;43233;48.608;8.838;2024-03-02T03:25:23;4.90;73.70
32293;DHT22;43233;48.608;8.838;2024-03-02T03:27:48;4.90;73.50
32293;DHT22;43233;48.608;8.838;2024-03-02T03:30:14;4.90;73.30
32293;DHT22;43233;48.608;8.838;2024-03-02T03:32:40;4.90;72.70
32293;DHT22;43233;48.608;8.838;2024-03-02T03:35:06;4.90;72.40
32293;DHT22;43233;48.608;8.838;2024-03-02T03:37:32;4.80;71.80
32293;DHT22;43233;48.608;8.838;2024-03-02T03:40:02;4.70;71.70
32293;DHT22;43233;48.608;8.838;2024-03-02T03:42:28;4.70;71.40
32293;DHT22;43233;48.608;8.838;2024-03-02T03:44:54;4.70;71.50
32293;DHT22;43233;48.608;8.838;2024-03-02T03:47:19;4.60;72.70
32293;DHT22;43233;48.608;8.838;2024-03-02T03:49:45;4.60;73.20
32293;DHT22;43233;48.608;8.838;2024-03-02T03:52:11;4.60;73.50
32293;DHT22;43233;48.608;8.838;2024-03-02T03:54:37;4.60;74.10
32293;DHT22;43233;48.608;8.838;2024-03-02T03:57:04;4.60;74.10
32293;DHT22;43233;48.608;8.838;2024-03-02T03:59:30;4.70;74.40
32293;DHT22;43233;48.608;8.838;2024-03-02T04:01:56;4.70;74.50
32293;DHT22;43233;48.608;8.838;2024-03-02T04:04:21;4.70;74.50
32293;DHT22;43233;48.608;8.838;2024-03-02T04:06:47;4.70;74.50
32293;DHT22;43233;48.608;8.838;2024-03-02T04:09:13;4.70;74.40
32293;DHT22;43233;48.608;8.838;2024-03-02T04:11:39;4.60;73.80
32293;DHT22;43233;48.608;8.838;2024-03-02T04:14:04;4.60;73.10
32293;DHT22;43233;48.608;8.838;2024-03-02T04:16:31;4.60;72.50
32293;DHT22;43233;48.608;8.838;2024-03-02T04:18:57;4.50;72.50
32293;DHT22;43233;48.608;8.838;2024-03-02T04:21:22;4.50;72.20
32293;DHT22;43233;48.608;8.838;2024-03-02T04:23:48;4.50;72.30
32293;DHT22;43233;48.608;8.838;2024-03-02T04:26:14;4.40;71.80
32293;DHT22;43233;48.608;8.838;2024-03-02T04:28:40;4.40;71.80
32293;DHT22;43233;48.608;8.838;2024-03-02T04:31:06;4.30;72.40
32293;DHT22;43233;48.608;8.838;2024-03-02T04:33:31;4.30;73.20
32293;DHT22;43233;48.608;8.838;2024-03-02T04:35:57;4.30;73.60
32293;DHT22;43233;48.608;8.838;2024-03-02T04:38:23;4.30;73.70
32293;DHT22;43233;48.608;8.838;2024-03-02T04:40:48;4.30;74.30
32293;DHT22;43233;48.608;8.838;2024-03-02T04:43:14;4.30;73.90
32293;DHT22;43233;48.608;8.838;2024-03-02T04:45:42;4.30;73.50
32293;DHT22;43233;48.608;8.838;2024-03-02T04:48:08;4.30;73.20
32293;DHT22;43233;48.608;8.838;2024-03-02T04:50:34;4.30;72.90
32293;DHT22;43233;48.608;8.838;2024-03-02T04:52:59;4.30;73.00
32293;DHT22;43233;48.608;8.838;2024-03-02T04:55:25;4.30;73.20
32293;DHT22;43233;48.608;8.838;2024-03-02T04:58:10;4.30;73.10
32293;DHT22;43233;48.608;8.838;2024-03-02T05:00:36;4.20;74.20
32293;DHT22;43233;48.608;8.838;2024-03-02T05:03:02;4.30;74.40
32293;DHT22;43233;48.608;8.838;2024-03-02T05:05:28;4.30;74.90
32293;DHT22;43233;48.608;8.838;2024-03-02T05:07:53;4.30;75.10
32293;DHT22;43233;48.608;8.838;2024-03-02T05:10:19;4.30;74.90
32293;DHT22;43233;48.608;8.838;2024-03-02T05:12:45;4.30;74.30
32293;DHT22;43233;48.608;8.838;2024-03-02T05:15:12;4.30;74.40
32293;DHT22;43233;48.608;8.838;2024-03-02T05:17:39;4.30;73.90
32293;DHT22;43233;48.608;8.838;2024-03-02T05:20:06;4.30;73.50
32293;DHT22;43233;48.608;8.838;2024-03-02T05:22:33;4.20;73.20
32293;DHT22;43233;48.608;8.838;2024-03-02T05:25:00;4.20;73.10
32293;DHT22;43233;48.608;8.838;2024-03-02T05:27:26;4.20;73.20
32293;DHT22;43233;48.608;8.838;2024-03-02T05:29:52;4.20;73.50
32293;DHT22;43233;48.608;8.838;2024-03-02T05:32:17;4.20;73.90
32293;DHT22;43233;48.608;8.838;2024-03-02T05:34:43;4.20;74.10
32293;DHT22;43233;48.608;8.838;2024-03-02T05:37:09;4.20;73.70
32293;DHT22;43233;48.608;8.838;2024-03-02T05:39:34;4.10;74.20
32293;DHT22;43233;48.608;8.838;2024-03-02T05:42:00;4.10;75.40
32293;DHT22;43233;48.608;8.838;2024-03-02T05:44:25;4.10;76.10
32293;DHT22;43233;48.608;8.838;2024-03-02T05:46:51;4.10;76.40
32293;DHT22;43233;48.608;8.838;2024-03-02T05:49:17;4.10;76.70
32293;DHT22;43233;48.608;8.838;2024-03-02T05:51:42;4.10;76.40
32293;DHT22;43233;48.608;8.838;2024-03-02T05:54:08;4.10;75.80
32293;DHT22;43233;48.608;8.838;2024-03-02T05:56:34;4.10;75.70
32293;DHT22;43233;48.608;8.838;2024-03-02T05:59:00;4.10;76.40
32293;DHT22;43233;48.608;8.838;2024-03-02T06:01:45;4.10;76.80
32293;DHT22;43233;48.608;8.838;2024-03-02T06:04:17;4.10;77.10
32293;DHT22;43233;48.608;8.838;2024-03-02T06:06:43;4.10;77.20
32293;DHT22;43233;48.608;8.838;2024-03-02T06:09:09;4.20;77.70
32293;DHT22;43233;48.608;8.838;2024-03-02T06:11:38;4.10;77.10
32293;DHT22;43233;48.608;8.838;2024-03-02T06:14:05;4.20;77.40
32293;DHT22;43233;48.608;8.838;2024-03-02T06:16:31;4.20;77.10
32293;DHT22;43233;48.608;8.838;2024-03-02T06:18:57;4.10;76.90
32293;DHT22;43233;48.608;8.838;2024-03-02T06:21:26;4.10;76.50
32293;DHT22;43233;48.608;8.838;2024-03-02T06:23:52;4.10;76.30
32293;DHT22;43233;48.608;8.838;2024-03-02T06:26:18;4.10;75.30
32293;DHT22;43233;48.608;8.838;2024-03-02T06:28:44;4.00;75.00
32293;DHT22;43233;48.608;8.838;2024-03-02T06:31:10;4.00;74.80
32293;DHT22;43233;48.608;8.838;2024-03-02T06:33:36;4.00;74.70
32293;DHT22;43233;48.608;8.838;2024-03-02T06:36:02;3.90;74.80
32293;DHT22;43233;48.608;8.838;2024-03-02T06:38:27;4.00;74.90
32293;DHT22;43233;48.608;8.838;2024-03-02T06:40:53;3.90;75.00
32293;DHT22;43233;48.608;8.838;2024-03-02T06:43:19;3.90;75.30
32293;DHT22;43233;48.608;8.838;2024-03-02T06:45:51;4.00;75.70
32293;DHT22;43233;48.608;8.838;2024-03-02T06:48:18;4.00;76.70
32293;DHT22;43233;48.608;8.838;2024-03-02T06:50:47;4.00;75.90
32293;DHT22;43233;48.608;8.838;2024-03-02T06:53:13;4.10;75.70
32293;DHT22;43233;48.608;8.838;2024-03-02T06:55:39;4.10;75.60
32293;DHT22;43233;48.608;8.838;2024-03-02T06:58:04;4.10;76.20
32293;DHT22;43233;48.608;8.838;2024-03-02T07:00:30;4.10;76.20
32293;DHT22;43233;48.608;8.838;2024-03-02T07:02:56;4.10;76.30
32293;DHT22;43233;48.608;8.838;2024-03-02T07:05:21;4.10;76.70
32293;DHT22;43233;48.608;8.838;2024-03-02T07:07:47;4.10;77.10
32293;DHT22;43233;48.608;8.838;2024-03-02T07:10:12;4.10;77.10
32293;DHT22;43233;48.608;8.838;2024-03-02T07:12:38;4.10;77.40
32293;DHT22;43233;48.608;8.838;2024-03-02T07:15:04;4.10;77.70
32293;DHT22;43233;48.608;8.838;2024-03-02T07:17:33;4.00;78.00
32293;DHT22;43233;48.608;8.838;2024-03-02T07:19:58;4.00;78.30
32293;DHT22;43233;48.608;8.838;2024-03-02T07:22:24;4.10;78.20
32293;DHT22;43233;48.608;8.838;2024-03-02T07:24:50;4.10;78.30
32293;DHT22;43233;48.608;8.838;2024-03-02T07:27:16;4.10;78.20
32293;DHT22;43233;48.608;8.838;2024-03-02T07:29:43;4.10;78.20
32293;DHT22;43233;48.608;8.838;2024-03-02T07:32:09;4.10;78.00
32293;DHT22;43233;48.608;8.838;2024-03-02T07:34:36;4.10;77.70
32293;DHT22;43233;48.608;8.838;2024-03-02T07:37:02;4.20;77.70
32293;DHT22;43233;48.608;8.838;2024-03-02T07:39:28;4.20;77.70
32293;DHT22;43233;48.608;8.838;2024-03-02T07:41:55;4.30;77.90
32293;DHT22;43233;48.608;8.838;2024-03-02T07:44:20;4.30;78.50
32293;DHT22;43233;48.608;8.838;2024-03-02T07:46:47;4.50;79.50
32293;DHT22;43233;48.608;8.838;2024-03-02T07:49:15;4.80;79.80
32293;DHT22;43233;48.608;8.838;2024-03-02T07:51:41;5.10;79.90
32293;DHT22;43233;48.608;8.838;2024-03-02T07:54:06;5.40;79.10
32293;DHT22;43233;48.608;8.838;2024-03-02T07:56:32;5.60;77.60
32293;DHT22;43233;48.608;8.838;2024-03-02T07:58:58;5.90;76.30
32293;DHT22;43233;48.608;8.838;2024-03-02T08:01:30;6.10;74.90
32293;DHT22;43233;48.608;8.838;2024-03-02T08:04:01;6.30;73.60
32293;DHT22;43233;48.608;8.838;2024-03-02T08:06:28;6.50;73.30
32293;DHT22;43233;48.608;8.838;2024-03-02T08:08:55;6.70;72.80
32293;DHT22;43233;48.608;8.838;2024-03-02T08:11:21;7.00;71.90
32293;DHT22;43233;48.608;8.838;2024-03-02T08:13:47;7.20;70.50
32293;DHT22;43233;48.608;8.838;2024-03-02T08:16:14;7.30;69.60
32293;DHT22;43233;48.608;8.838;2024-03-02T08:18:40;7.50;68.30
32293;DHT22;43233;48.608;8.838;2024-03-02T08:21:05;7.80;67.40
32293;DHT22;43233;48.608;8.838;2024-03-02T08:23:33;8.00;66.20
32293;DHT22;43233;48.608;8.838;2024-03-02T08:25:59;8.20;63.50
32293;DHT22;43233;48.608;8.838;2024-03-02T08:28:25;8.40;64.20
32293;DHT22;43233;48.608;8.838;2024-03-02T08:30:50;8.70;63.10
32293;DHT22;43233;48.608;8.838;2024-03-02T08:33:16;9.10;60.60
32293;DHT22;43233;48.608;8.838;2024-03-02T08:35:41;9.30;59.40
32293;DHT22;43233;48.608;8.838;2024-03-02T08:38:07;9.50;58.90
32293;DHT22;43233;48.608;8.838;2024-03-02T08:40:33;9.70;59.10
32293;DHT22;43233;48.608;8.838;2024-03-02T08:42:58;10.00;56.80
32293;DHT22;43233;48.608;8.838;2024-03-02T08:45:24;10.30;54.60
32293;DHT22;43233;48.608;8.838;2024-03-02T08:47:49;10.60;53.00
32293;DHT22;43233;48.608;8.838;2024-03-02T08:50:15;10.90;53.20
32293;DHT22;43233;48.608;8.838;2024-03-02T08:52:41;11.20;52.30
32293;DHT22;43233;48.608;8.838;2024-03-02T08:55:07;11.60;48.70
32293;DHT22;43233;48.608;8.838;2024-03-02T08:57:33;11.80;47.90
32293;DHT22;43233;48.608;8.838;2024-03-02T08:59:59;12.20;46.30
32293;DHT22;43233;48.608;8.838;2024-03-02T09:02:25;12.50;45.00
32293;DHT22;43233;48.608;8.838;2024-03-02T09:04:51;12.80;42.70
32293;DHT22;43233;48.608;8.838;2024-03-02T09:07:16;13.00;42.80
32293;DHT22;43233;48.608;8.838;2024-03-02T09:09:42;13.10;42.30
32293;DHT22;43233;48.608;8.838;2024-03-02T09:12:07;13.30;40.80
32293;DHT22;43233;48.608;8.838;2024-03-02T09:14:34;13.50;39.90
32293;DHT22;43233;48.608;8.838;2024-03-02T09:17:00;13.60;39.20
32293;DHT22;43233;48.608;8.838;2024-03-02T09:19:26;13.70;38.60
32293;DHT22;43233;48.608;8.838;2024-03-02T09:21:51;13.80;37.20
32293;DHT22;43233;48.608;8.838;2024-03-02T09:24:17;13.80;37.90
32293;DHT22;43233;48.608;8.838;2024-03-02T09:26:42;13.80;37.10
32293;DHT22;43233;48.608;8.838;2024-03-02T09:29:08;13.80;37.90
32293;DHT22;43233;48.608;8.838;2024-03-02T09:31:42;13.70;38.00
32293;DHT22;43233;48.608;8.838;2024-03-02T09:34:08;13.80;38.30
32293;DHT22;43233;48.608;8.838;2024-03-02T09:36:34;13.90;38.80
32293;DHT22;43233;48.608;8.838;2024-03-02T09:38:59;14.30;38.00
32293;DHT22;43233;48.608;8.838;2024-03-02T09:41:25;14.60;36.20
32293;DHT22;43233;48.608;8.838;2024-03-02T09:43:51;14.80;34.90
32293;DHT22;43233;48.608;8.838;2024-03-02T09:46:17;14.90;35.00
32293;DHT22;43233;48.608;8.838;2024-03-02T09:48:44;15.00;34.30
32293;DHT22;43233;48.608;8.838;2024-03-02T09:51:11;15.00;33.50
32293;DHT22;43233;48.608;8.838;2024-03-02T09:53:37;15.10;33.10
32293;DHT22;43233;48.608;8.838;2024-03-02T09:56:03;15.30;33.90
32293;DHT22;43233;48.608;8.838;2024-03-02T09:58:30;15.40;33.30
32293;DHT22;43233;48.608;8.838;2024-03-02T10:00:55;15.50;32.30
32293;DHT22;43233;48.608;8.838;2024-03-02T10:03:22;15.60;32.10
32293;DHT22;43233;48.608;8.838;2024-03-02T10:05:50;15.70;32.40
32293;DHT22;43233;48.608;8.838;2024-03-02T10:08:15;16.10;31.80
32293;DHT22;43233;48.608;8.838;2024-03-02T10:10:41;16.20;31.20
32293;DHT22;43233;48.608;8.838;2024-03-02T10:13:13;16.20;31.10
32293;DHT22;43233;48.608;8.838;2024-03-02T10:15:40;16.50;30.70
32293;DHT22;43233;48.608;8.838;2024-03-02T10:18:13;16.50;29.30
32293;DHT22;43233;48.608;8.838;2024-03-02T10:20:40;16.60;29.70
32293;DHT22;43233;48.608;8.838;2024-03-02T10:23:15;16.70;29.00
32293;DHT22;43233;48.608;8.838;2024-03-02T10:25:43;16.90;29.10
32293;DHT22;43233;48.608;8.838;2024-03-02T10:28:09;16.90;28.90
32293;DHT22;43233;48.608;8.838;2024-03-02T10:30:35;17.10;28.90
32293;DHT22;43233;48.608;8.838;2024-03-02T10:33:02;17.10;27.30
32293;DHT22;43233;48.608;8.838;2024-03-02T10:35:28;17.20;28.30
32293;DHT22;43233;48.608;8.838;2024-03-02T10:37:54;17.20;28.00
32293;DHT22;43233;48.608;8.838;2024-03-02T10:40:23;17.30;27.40
32293;DHT22;43233;48.608;8.838;2024-03-02T10:42:50;17.60;26.90
32293;DHT22;43233;48.608;8.838;2024-03-02T10:45:19;17.80;26.30
32293;DHT22;43233;48.608;8.838;2024-03-02T10:47:46;18.10;25.70
32293;DHT22;43233;48.608;8.838;2024-03-02T10:50:12;18.50;25.30
32293;DHT22;43233;48.608;8.838;2024-03-02T10:52:38;18.90;24.20
32293;DHT22;43233;48.608;8.838;2024-03-02T10:55:08;19.20;24.00
32293;DHT22;43233;48.608;8.838;2024-03-02T10:58:01;19.50;23.00
32293;DHT22;43233;48.608;8.838;2024-03-02T11:00:33;19.90;22.60
32293;DHT22;43233;48.608;8.838;2024-03-02T11:03:06;20.30;21.60
32293;DHT22;43233;48.608;8.838;2024-03-02T11:05:34;20.70;19.80
32293;DHT22;43233;48.608;8.838;2024-03-02T11:08:04;21.00;20.00
32293;DHT22;43233;48.608;8.838;2024-03-02T11:10:35;21.20;19.60
32293;DHT22;43233;48.608;8.838;2024-03-02T11:13:05;21.60;19.00
32293;DHT22;43233;48.608;8.838;2024-03-02T11:15:31;21.60;18.70
32293;DHT22;43233;48.608;8.838;2024-03-02T11:18:00;21.70;18.90
32293;DHT22;43233;48.608;8.838;2024-03-02T11:20:26;21.80;18.70
32293;DHT22;43233;48.608;8.838;2024-03-02T11:22:52;21.70;18.70
32293;DHT22;43233;48.608;8.838;2024-03-02T11:25:25;21.60;18.00
32293;DHT22;43233;48.608;8.838;2024-03-02T11:35:25;21.40;18.80
32293;DHT22;43233;48.608;8.838;2024-03-02T11:37:54;21.80;18.10
32293;DHT22;43233;48.608;8.838;2024-03-02T11:40:24;22.40;17.70
32293;DHT22;43233;48.608;8.838;2024-03-02T11:42:50;22.90;17.30
32293;DHT22;43233;48.608;8.838;2024-03-02T11:45:17;23.40;16.00
32293;DHT22;43233;48.608;8.838;2024-03-02T11:47:50;23.90;15.40
32293;DHT22;43233;48.608;8.838;2024-03-02T11:50:15;24.50;15.90
32293;DHT22;43233;48.608;8.838;2024-03-02T11:52:42;25.10;14.20
32293;DHT22;43233;48.608;8.838;2024-03-02T11:55:09;25.40;14.40
32293;DHT22;43233;48.608;8.838;2024-03-02T11:57:36;25.60;13.40
32293;DHT22;43233;48.608;8.838;2024-03-02T12:00:02;25.90;13.20
32293;DHT22;43233;48.608;8.838;2024-03-02T12:02:29;26.20;12.80
32293;DHT22;43233;48.608;8.838;2024-03-02T12:04:55;26.40;12.40
32293;DHT22;43233;48.608;8.838;2024-03-02T12:07:23;26.60;12.10
32293;DHT22;43233;48.608;8.838;2024-03-02T12:10:01;26.70;11.70
32293;DHT22;43233;48.608;8.838;2024-03-02T12:12:28;26.90;11.80
32293;DHT22;43233;48.608;8.838;2024-03-02T12:14:53;27.00;11.80
32293;DHT22;43233;48.608;8.838;2024-03-02T12:17:21;27.20;11.90
32293;DHT22;43233;48.608;8.838;2024-03-02T12:19:47;27.30;11.70
32293;DHT22;43233;48.608;8.838;2024-03-02T12:22:13;27.50;10.90
32293;DHT22;43233;48.608;8.838;2024-03-02T12:24:39;27.60;10.90
32293;DHT22;43233;48.608;8.838;2024-03-02T12:27:08;27.60;10.10
32293;DHT22;43233;48.608;8.838;2024-03-02T12:29:34;27.50;10.60
32293;DHT22;43233;48.608;8.838;2024-03-02T12:32:00;27.20;10.20
32293;DHT22;43233;48.608;8.838;2024-03-02T12:34:27;27.10;11.00
32293;DHT22;43233;48.608;8.838;2024-03-02T12:36:53;27.30;10.50
32293;DHT22;43233;48.608;8.838;2024-03-02T12:39:19;27.60;11.00
32293;DHT22;43233;48.608;8.838;2024-03-02T12:41:50;28.00;10.20
32293;DHT22;43233;48.608;8.838;2024-03-02T12:44:16;28.00;9.70
32293;DHT22;43233;48.608;8.838;2024-03-02T12:46:42;27.70;9.60
32293;DHT22;43233;48.608;8.838;2024-03-02T12:49:10;27.10;10.50
32293;DHT22;43233;48.608;8.838;2024-03-02T12:51:37;26.20;11.30
32293;DHT22;43233;48.608;8.838;2024-03-02T12:54:03;25.20;12.00
32293;DHT22;43233;48.608;8.838;2024-03-02T12:56:30;24.20;13.20
32293;DHT22;43233;48.608;8.838;2024-03-02T12:58:56;23.10;14.30
32293;DHT22;43233;48.608;8.838;2024-03-02T13:01:23;22.30;15.40
32293;DHT22;43233;48.608;8.838;2024-03-02T13:03:49;21.50;16.00
32293;DHT22;43233;48.608;8.838;2024-03-02T13:06:18;20.90;17.00
32293;DHT22;43233;48.608;8.838;2024-03-02T13:08:45;20.40;17.20
32293;DHT22;43233;48.608;8.838;2024-03-02T13:11:12;20.00;17.90
32293;DHT22;43233;48.608;8.838;2024-03-02T13:13:39;19.70;18.40
32293;DHT22;43233;48.608;8.838;2024-03-02T13:16:09;19.40;18.80
32293;DHT22;43233;48.608;8.838;2024-03-02T13:18:35;19.20;19.50
32293;DHT22;43233;48.608;8.838;2024-03-02T13:21:01;19.10;19.90
32293;DHT22;43233;48.608;8.838;2024-03-02T13:23:27;19.20;19.50
32293;DHT22;43233;48.608;8.838;2024-03-02T13:25:54;19.20;19.70
32293;DHT22;43233;48.608;8.838;2024-03-02T13:28:20;19.40;19.20
32293;DHT22;43233;48.608;8.838;2024-03-02T13:30:45;19.50;19.50
32293;DHT22;43233;48.608;8.838;2024-03-02T13:33:11;19.50;19.40
32293;DHT22;43233;48.608;8.838;2024-03-02T13:35:36;19.70;19.30
32293;DHT22;43233;48.608;8.838;2024-03-02T13:38:02;20.10;19.20
32293;DHT22;43233;48.608;8.838;2024-03-02T13:40:28;20.70;18.50
32293;DHT22;43233;48.608;8.838;2024-03-02T13:42:54;21.10;18.80
32293;DHT22;43233;48.608;8.838;2024-03-02T13:45:20;21.30;17.70
32293;DHT22;43233;48.608;8.838;2024-03-02T13:47:46;21.30;17.30
32293;DHT22;43233;48.608;8.838;2024-03-02T13:50:12;21.10;17.30
32293;DHT22;43233;48.608;8.838;2024-03-02T13:52:38;20.80;17.40
32293;DHT22;43233;48.608;8.838;2024-03-02T13:55:04;20.50;17.80
32293;DHT22;43233;48.608;8.838;2024-03-02T13:57:29;20.30;18.00
32293;DHT22;43233;48.608;8.838;2024-03-02T13:59:56;20.30;18.40
32293;DHT22;43233;48.608;8.838;2024-03-02T14:02:21;20.20;18.60
32293;DHT22;43233;48.608;8.838;2024-03-02T14:04:48;20.10;18.10
32293;DHT22;43233;48.608;8.838;2024-03-02T14:07:15;20.00;18.90
32293;DHT22;43233;48.608;8.838;2024-03-02T14:09:40;20.00;19.70
32293;DHT22;43233;48.608;8.838;2024-03-02T14:12:06;20.00;19.40
32293;DHT22;43233;48.608;8.838;2024-03-02T14:14:32;19.90;19.50
32293;DHT22;43233;48.608;8.838;2024-03-02T14:16:58;19.90;19.90
32293;DHT22;43233;48.608;8.838;2024-03-02T14:19:29;19.90;19.80
32293;DHT22;43233;48.608;8.838;2024-03-02T14:21:55;19.80;20.00
32293;DHT22;43233;48.608;8.838;2024-03-02T14:24:21;19.80;20.80
32293;DHT22;43233;48.608;8.838;2024-03-02T14:26:53;19.80;19.70
32293;DHT22;43233;48.608;8.838;2024-03-02T14:29:19;19.80;19.50
32293;DHT22;43233;48.608;8.838;2024-03-02T14:31:45;19.60;18.70
32293;DHT22;43233;48.608;8.838;2024-03-02T14:34:14;19.40;19.00
32293;DHT22;43233;48.608;8.838;2024-03-02T14:36:40;19.20;19.50
32293;DHT22;43233;48.608;8.838;2024-03-02T14:39:06;19.10;19.50
32293;DHT22;43233;48.608;8.838;2024-03-02T14:41:36;19.00;20.20
32293;DHT22;43233;48.608;8.838;2024-03-02T14:44:01;19.00;20.90
32293;DHT22;43233;48.608;8.838;2024-03-02T14:46:27;19.00;21.60
32293;DHT22;43233;48.608;8.838;2024-03-02T14:48:53;19.00;21.10
32293;DHT22;43233;48.608;8.838;2024-03-02T14:51:18;19.00;20.50
32293;DHT22;43233;48.608;8.838;2024-03-02T14:53:44;18.90;21.20
32293;DHT22;43233;48.608;8.838;2024-03-02T14:56:09;18.80;20.90
32293;DHT22;43233;48.608;8.838;2024-03-02T14:58:35;18.60;21.10
32293;DHT22;43233;48.608;8.838;2024-03-02T15:01:03;18.50;21.20
32293;DHT22;43233;48.608;8.838;2024-03-02T15:03:29;18.30;20.80
32293;DHT22;43233;48.608;8.838;2024-03-02T15:05:54;18.10;21.40
32293;DHT22;43233;48.608;8.838;2024-03-02T15:08:20;17.90;21.70
32293;DHT22;43233;48.608;8.838;2024-03-02T15:10:45;17.60;22.60
32293;DHT22;43233;48.608;8.838;2024-03-02T15:13:12;17.40;23.10
32293;DHT22;43233;48.608;8.838;2024-03-02T15:15:38;17.30;23.30
32293;DHT22;43233;48.608;8.838;2024-03-02T15:18:03;17.20;23.20
32293;DHT22;43233;48.608;8.838;2024-03-02T15:20:29;17.20;23.70
32293;DHT22;43233;48.608;8.838;2024-03-02T15:22:55;17.10;23.50
32293;DHT22;43233;48.608;8.838;2024-03-02T15:25:20;17.00;23.60
32293;DHT22;43233;48.608;8.838;2024-03-02T15:27:46;16.90;24.10
32293;DHT22;43233;48.608;8.838;2024-03-02T15:30:12;16.90;23.90
32293;DHT22;43233;48.608;8.838;2024-03-02T15:32:37;16.90;23.80
32293;DHT22;43233;48.608;8.838;2024-03-02T15:35:05;16.80;23.80
32293;DHT22;43233;48.608;8.838;2024-03-02T15:37:31;16.70;24.00
32293;DHT22;43233;48.608;8.838;2024-03-02T15:39:56;16.60;24.30
32293;DHT22;43233;48.608;8.838;2024-03-02T15:42:22;16.60;24.40
32293;DHT22;43233;48.608;8.838;2024-03-02T15:44:51;16.60;24.40